Time;durP1;ratioP1;P1;durP2;ratioP2;P2;SDS_P1;SDS_P2;PMS_P1;PMS_P2;Temp;Humidity;BMP_temperature;BMP_pressure;BME280_temperature;BME280_humidity;BME280_pressure;Samples;Min_cycle;Max_cycle;Signal;HPM_P1;HPM_P2
2022/09/28 00:00:10;;;;;;;10.95;8.27;;;;;;;10.55;100.00;98683.41;6306016;22;20086;-91
2022/09/28 00:02:38;;;;;;;13.52;8.52;;;;;;;10.40;100.00;98680.53;6306874;22;20011;-90
2022/09/28 00:05:04;;;;;;;30.58;9.35;;;;;;;10.34;100.00;98687.97;6279666;22;20011;-91
2022/09/28 00:07:30;;;;;;;14.38;9.27;;;;;;;10.38;100.00;98701.66;6306979;22;20402;-91
2022/09/28 00:09:55;;;;;;;76.88;9.73;;;;;;;10.39;100.00;98689.34;6306136;22;20100;-92
2022/09/28 00:12:21;;;;;;;137.63;11.82;;;;;;;10.34;100.00;98699.03;6306841;22;20011;-91
2022/09/28 00:14:46;;;;;;;35.83;9.23;;;;;;;10.39;100.00;98706.72;6306283;22;20503;-91
2022/09/28 00:17:12;;;;;;;144.07;11.05;;;;;;;10.36;100.00;98698.56;6306151;22;20502;-92
2022/09/28 00:19:39;;;;;;;35.60;8.57;;;;;;;10.38;100.00;98698.88;6279353;22;19999;-91
2022/09/28 00:22:05;;;;;;;53.58;9.63;;;;;;;10.40;100.00;98701.94;6306305;22;20038;-91
2022/09/28 00:24:31;;;;;;;30.52;8.73;;;;;;;10.43;100.00;98701.03;6310781;22;20010;-92
2022/09/28 00:26:59;;;;;;;10.00;7.22;;;;;;;10.42;100.00;98693.94;6317872;22;20015;-91
2022/09/28 00:29:30;;;;;;;39.47;8.68;;;;;;;10.49;100.00;98694.38;6310991;22;20015;-91
2022/09/28 00:32:01;;;;;;;24.30;8.25;;;;;;;10.53;100.00;98702.50;6279635;22;20025;-91
2022/09/28 00:34:35;;;;;;;9.27;7.90;;;;;;;10.53;100.00;98688.63;6254298;22;20043;-94
2022/09/28 00:37:02;;;;;;;13.95;8.05;;;;;;;10.53;100.00;98705.28;6306090;22;20011;-94
2022/09/28 00:39:30;;;;;;;12.55;7.95;;;;;;;10.55;100.00;98695.28;6279013;22;20015;-93
2022/09/28 00:41:56;;;;;;;112.22;10.77;;;;;;;10.48;100.00;98686.50;6306229;22;20228;-94
2022/09/28 00:44:24;;;;;;;27.95;8.48;;;;;;;10.53;100.00;98696.97;6305058;22;20345;-91
2022/09/28 00:46:53;;;;;;;28.45;8.63;;;;;;;10.54;100.00;98695.72;6278419;22;20326;-94
2022/09/28 00:49:29;;;;;;;45.00;8.82;;;;;;;10.42;100.00;98696.69;6251402;22;20015;-89
2022/09/28 00:51:55;;;;;;;9.35;7.03;;;;;;;10.49;100.00;98699.13;6305691;22;20067;-94
2022/09/28 00:54:21;;;;;;;9.50;7.20;;;;;;;10.55;100.00;98700.81;6277375;22;20090;-94
2022/09/28 00:56:47;;;;;;;12.85;7.57;;;;;;;10.53;100.00;98688.63;6252367;22;20022;-93
2022/09/28 00:59:13;;;;;;;78.55;9.45;;;;;;;10.51;100.00;98682.81;6275250;22;20568;-92
2022/09/28 01:01:40;;;;;;;14.35;7.75;;;;;;;10.53;100.00;98683.09;6252920;22;20019;-94
2022/09/28 01:04:06;;;;;;;173.40;12.48;;;;;;;10.57;100.00;98683.69;6277337;22;20390;-93
2022/09/28 01:06:35;;;;;;;18.75;7.53;;;;;;;10.48;100.00;98669.88;6277759;22;20014;-92
2022/09/28 01:09:03;;;;;;;32.50;8.02;;;;;;;10.50;100.00;98675.72;6305331;22;20007;-92
2022/09/28 01:11:31;;;;;;;74.32;8.07;;;;;;;10.47;100.00;98690.53;6278383;22;20018;-92
2022/09/28 01:13:57;;;;;;;7.72;6.13;;;;;;;10.41;100.00;98675.75;6251243;22;20019;-91
2022/09/28 01:16:34;;;;;;;23.48;6.50;;;;;;;10.48;100.00;98675.41;6252505;22;20314;-91
2022/09/28 01:19:31;;;;;;;21.17;6.43;;;;;;;10.49;100.00;98679.72;6277626;22;20030;-92
2022/09/28 01:22:21;;;;;;;34.40;6.30;;;;;;;10.42;100.00;98680.84;6278274;22;20464;-93
2022/09/28 01:24:50;;;;;;;71.70;7.97;;;;;;;10.43;100.00;98681.63;6277066;22;20054;-91
2022/09/28 01:27:19;;;;;;;9.85;6.00;;;;;;;10.39;100.00;98678.25;6276807;22;20011;-91
2022/09/28 01:30:05;;;;;;;15.50;5.80;;;;;;;10.33;100.00;98674.56;6278649;22;20015;-92
2022/09/28 01:32:53;;;;;;;29.60;6.00;;;;;;;10.37;100.00;98664.84;6252488;22;20015;-92
2022/09/28 01:35:28;;;;;;;20.45;5.60;;;;;;;10.26;100.00;98661.81;6277766;22;20425;-92
2022/09/28 01:38:29;;;;;;;65.38;7.43;;;;;;;10.25;100.00;98674.91;6305399;22;20037;-92
2022/09/28 01:40:57;;;;;;;24.67;5.72;;;;;;;10.20;100.00;98666.44;6154696;23;20020;-92
2022/09/28 01:43:27;;;;;;;35.90;6.57;;;;;;;10.17;100.00;98679.25;6253415;22;20762;-92
2022/09/28 01:45:56;;;;;;;7.63;5.70;;;;;;;10.12;100.00;98677.06;6252605;22;20019;-92
2022/09/28 01:48:26;;;;;;;11.52;5.80;;;;;;;10.11;100.00;98681.06;6253083;22;20010;-80
2022/09/28 01:50:55;;;;;;;7.97;5.40;;;;;;;10.15;100.00;98675.41;6277445;22;20108;-80
2022/09/28 01:53:41;;;;;;;8.77;5.40;;;;;;;10.18;100.00;98675.25;6226532;22;20337;-80
2022/09/28 01:56:18;;;;;;;6.00;5.40;;;;;;;10.22;100.00;98680.63;6252326;22;20022;-79
2022/09/28 01:58:52;;;;;;;38.85;6.28;;;;;;;10.16;100.00;98683.25;6249401;22;20060;-79
2022/09/28 02:01:27;;;;;;;33.13;6.47;;;;;;;10.06;100.00;98670.63;6275146;22;20011;-79
2022/09/28 02:04:03;;;;;;;21.52;6.28;;;;;;;9.95;100.00;98667.56;6248830;22;20093;-79
2022/09/28 02:06:34;;;;;;;125.88;9.55;;;;;;;9.91;100.00;98669.00;6251330;22;20095;-79
2022/09/28 02:09:11;;;;;;;69.97;7.22;;;;;;;9.76;100.00;98666.06;6273126;22;20441;-79
2022/09/28 02:11:44;;;;;;;155.07;10.60;;;;;;;9.74;100.00;98665.78;6250957;22;20018;-79
2022/09/28 02:14:12;;;;;;;107.38;9.05;;;;;;;9.71;100.00;98663.91;6248760;22;20038;-79
2022/09/28 02:16:41;;;;;;;102.50;8.50;;;;;;;9.73;100.00;98655.94;6275523;22;20052;-79
2022/09/28 02:19:10;;;;;;;167.23;10.88;;;;;;;9.68;100.00;98656.56;6276055;22;20011;-79
2022/09/28 02:21:44;;;;;;;104.47;8.07;;;;;;;9.78;100.00;98655.31;6248958;22;20038;-79
2022/09/28 02:24:37;;;;;;;72.45;6.93;;;;;;;9.74;100.00;98654.72;6250258;22;20503;-79
2022/09/28 02:27:11;;;;;;;16.85;6.55;;;;;;;9.81;100.00;98659.91;6275457;22;20018;-80
2022/09/28 02:29:36;;;;;;;54.50;6.68;;;;;;;9.82;100.00;98665.00;6248641;22;20042;-80
2022/09/28 02:32:02;;;;;;;28.33;5.68;;;;;;;9.81;100.00;98666.22;6249694;22;20050;-80
2022/09/28 02:34:28;;;;;;;46.85;6.85;;;;;;;9.70;100.00;98623.66;6250979;22;20370;-80
2022/09/28 02:36:53;;;;;;;68.90;6.57;;;;;;;9.77;100.00;98659.31;6273913;22;20015;-80
2022/09/28 02:39:19;;;;;;;94.95;7.95;;;;;;;9.76;100.00;98671.63;6276772;22;20034;-80
2022/09/28 02:41:51;;;;;;;34.67;5.68;;;;;;;9.73;100.00;98678.09;6305173;22;20037;-80
2022/09/28 02:44:27;;;;;;;74.28;6.75;;;;;;;9.70;100.00;98679.78;6251128;22;20092;-79
2022/09/28 02:47:00;;;;;;;31.77;5.85;;;;;;;9.69;100.00;98677.47;6276971;22;20079;-81
2022/09/28 02:49:51;;;;;;;8.85;4.90;;;;;;;9.78;100.00;98691.31;6278557;22;20019;-81
2022/09/28 02:52:39;;;;;;;5.95;4.82;;;;;;;9.83;100.00;98693.44;6275999;22;20015;-81
2022/09/28 02:55:30;;;;;;;62.50;6.35;;;;;;;9.93;100.00;98694.97;6278186;22;20015;-82
2022/09/28 02:57:56;;;;;;;14.10;5.00;;;;;;;9.93;100.00;98699.75;6261099;22;20441;-82
2022/09/28 03:00:22;;;;;;;23.65;5.78;;;;;;;9.91;100.00;98680.06;6278530;22;20013;-80
2022/09/28 03:03:06;;;;;;;34.35;6.10;;;;;;;9.97;100.00;98698.34;6251404;22;20011;-79
2022/09/28 03:05:53;;;;;;;117.18;8.77;;;;;;;10.01;100.00;98701.72;6277542;22;20100;-79
2022/09/28 03:08:25;;;;;;;30.23;5.78;;;;;;;10.06;100.00;98690.03;6277551;22;20019;-80
2022/09/28 03:10:58;;;;;;;41.22;6.72;;;;;;;10.04;100.00;98684.16;6276096;22;20081;-79
2022/09/28 03:13:24;;;;;;;16.77;5.95;;;;;;;10.03;100.00;98668.78;6252497;22;20015;-79
2022/09/28 03:15:50;;;;;;;13.60;5.60;;;;;;;10.10;100.00;98678.78;6278690;22;20061;-79
2022/09/28 03:18:16;;;;;;;41.83;6.13;;;;;;;10.06;100.00;98667.88;6277800;22;20011;-80
2022/09/28 03:20:42;;;;;;;56.28;7.63;;;;;;;10.09;100.00;98672.47;6250965;22;20498;-80
2022/09/28 03:23:08;;;;;;;35.38;6.60;;;;;;;10.12;100.00;98670.75;6278056;22;20128;-81
2022/09/28 03:25:33;;;;;;;11.10;5.85;;;;;;;10.12;100.00;98677.06;6305130;22;20034;-79
2022/09/28 03:27:59;;;;;;;44.08;6.88;;;;;;;10.04;100.00;98666.78;6277641;22;20344;-79
2022/09/28 03:30:27;;;;;;;112.07;8.57;;;;;;;9.81;100.00;98662.69;6278601;22;20084;-79
2022/09/28 03:33:01;;;;;;;45.53;6.60;;;;;;;9.79;100.00;98652.06;6304959;22;20010;-79
2022/09/28 03:35:29;;;;;;;81.00;8.05;;;;;;;9.85;100.00;98663.28;6277251;22;20015;-79
2022/09/28 03:37:55;;;;;;;10.18;6.00;;;;;;;9.87;100.00;98654.53;6304214;22;20322;-79
2022/09/28 03:40:22;;;;;;;43.40;6.47;;;;;;;9.91;100.00;98661.41;6277095;22;20011;-80
2022/09/28 03:42:47;;;;;;;13.07;6.03;;;;;;;9.83;100.00;98655.44;6305074;22;20007;-80
2022/09/28 03:45:13;;;;;;;59.83;6.60;;;;;;;9.86;100.00;98659.31;6304487;22;20128;-80
2022/09/28 03:47:44;;;;;;;38.50;6.55;;;;;;;9.79;100.00;98660.38;6277937;22;20046;-80
2022/09/28 03:50:09;;;;;;;40.97;6.50;;;;;;;9.72;100.00;98648.84;6277977;22;20053;-80
2022/09/28 03:52:35;;;;;;;98.07;7.95;;;;;;;9.75;100.00;98654.22;6304842;22;20015;-80
2022/09/28 03:55:00;;;;;;;52.35;7.30;;;;;;;9.76;100.00;98660.53;6277228;22;20133;-80
2022/09/28 03:57:26;;;;;;;50.63;7.63;;;;;;;9.75;100.00;98661.75;6277254;22;20019;-80
2022/09/28 03:59:51;;;;;;;20.80;5.82;;;;;;;9.76;100.00;98657.78;6276548;22;20011;-80
2022/09/28 04:02:17;;;;;;;10.82;6.10;;;;;;;9.80;100.00;98653.59;6251209;22;20015;-80
2022/09/28 04:04:42;;;;;;;10.13;5.88;;;;;;;9.83;100.00;98654.66;6302683;22;20015;-80
2022/09/28 04:07:08;;;;;;;95.82;7.72;;;;;;;9.78;100.00;98658.09;6274203;22;20019;-80
2022/09/28 04:09:34;;;;;;;69.75;6.22;;;;;;;9.69;100.00;98661.63;6275123;22;20065;-80
2022/09/28 04:11:59;;;;;;;56.55;6.43;;;;;;;9.63;100.00;98657.94;6275330;22;20058;-80
2022/09/28 04:14:25;;;;;;;6.00;4.90;;;;;;;9.63;100.00;98637.78;6250950;22;20011;-80
2022/09/28 04:16:53;;;;;;;48.40;6.63;;;;;;;9.67;100.00;98650.25;6275475;22;20015;-80
2022/09/28 04:19:21;;;;;;;62.85;6.63;;;;;;;9.59;100.00;98643.50;6276016;22;20367;-80
2022/09/28 04:22:07;;;;;;;54.85;7.18;;;;;;;9.60;100.00;98638.72;6240003;22;20056;-80
2022/09/28 04:24:32;;;;;;;71.35;7.72;;;;;;;9.51;100.00;98628.44;6277128;22;20043;-80
2022/09/28 04:29:14;;;;;;;65.78;7.53;;;;;;;9.60;100.00;98633.19;6275154;22;20011;-82
2022/09/28 04:29:44;;;;;;;109.10;8.57;;;;;;;9.61;100.00;98643.81;6276987;22;20011;-82
2022/09/28 04:32:10;;;;;;;100.78;8.93;;;;;;;9.57;100.00;98626.59;6250568;22;20418;-81
2022/09/28 04:34:38;;;;;;;143.07;9.25;;;;;;;9.52;100.00;98629.97;6250075;22;20030;-81
2022/09/28 04:37:04;;;;;;;81.65;7.47;;;;;;;9.48;100.00;98617.53;6276850;22;20326;-81
2022/09/28 04:39:29;;;;;;;30.33;6.95;;;;;;;9.43;100.00;98618.13;6274376;22;20021;-81
2022/09/28 04:41:55;;;;;;;133.55;10.38;;;;;;;9.49;100.00;98630.13;6275706;22;20030;-81
2022/09/28 04:44:21;;;;;;;139.23;10.40;;;;;;;9.46;100.00;98623.53;6276010;22;20090;-81
2022/09/28 04:46:49;;;;;;;52.13;7.75;;;;;;;9.41;100.00;98621.38;6275376;22;20014;-81
2022/09/28 04:49:27;;;;;;;141.25;10.05;;;;;;;9.35;100.00;98618.47;6312069;22;20026;-81
2022/09/28 04:51:55;;;;;;;134.90;9.57;;;;;;;9.32;100.00;98622.16;6276522;22;20072;-81
2022/09/28 04:54:21;;;;;;;92.28;8.88;;;;;;;9.24;100.00;98620.16;6245585;22;20085;-81
2022/09/28 04:56:47;;;;;;;117.85;9.73;;;;;;;9.23;100.00;98624.16;6276257;22;20019;-81
2022/09/28 04:59:13;;;;;;;45.65;8.02;;;;;;;9.25;100.00;98630.78;6303309;22;20007;-81
2022/09/28 05:01:39;;;;;;;107.75;9.18;;;;;;;9.23;100.00;98636.00;6249391;22;20062;-81
2022/09/28 05:04:34;;;;;;;;;;;;;;;9.26;100.00;98640.59;6280239;22;20011;-80
2022/09/28 05:07:18;;;;;;;113.47;9.68;;;;;;;9.25;100.00;98638.31;6300579;22;20300;-80
2022/09/28 05:09:43;;;;;;;35.85;7.80;;;;;;;9.25;100.00;98625.25;6272811;22;20011;-80
2022/09/28 05:12:09;;;;;;;28.65;8.23;;;;;;;9.38;100.00;98646.44;6271746;22;20011;-80
2022/09/28 05:14:37;;;;;;;18.15;7.10;;;;;;;9.45;100.00;98640.59;6273834;22;20080;-80
2022/09/28 05:17:04;;;;;;;131.25;9.07;;;;;;;9.49;100.00;98641.22;6273761;22;20598;-80
2022/09/28 05:19:43;;;;;;;46.00;7.93;;;;;;;9.50;100.00;98634.44;6271472;22;20008;-80
2022/09/28 05:22:13;;;;;;;68.72;7.78;;;;;;;9.51;100.00;98635.97;6273095;22;20011;-80
2022/09/28 05:24:43;;;;;;;28.38;8.10;;;;;;;9.52;100.00;98631.97;6274403;22;20038;-80
2022/09/28 05:27:09;;;;;;;34.97;7.90;;;;;;;9.54;100.00;98632.28;6248802;22;20008;-79
2022/09/28 05:29:35;;;;;;;30.20;7.78;;;;;;;9.60;100.00;98624.88;6275574;22;20011;-80
2022/09/28 05:32:20;;;;;;;7.93;6.63;;;;;;;9.66;100.00;98623.03;6300755;22;20011;-80
2022/09/28 05:34:59;;;;;;;49.35;7.78;;;;;;;9.67;100.00;98625.31;6276533;22;20050;-80
2022/09/28 05:37:29;;;;;;;32.47;7.93;;;;;;;9.70;100.00;98626.41;6275723;22;20042;-80
2022/09/28 05:39:56;;;;;;;15.20;7.50;;;;;;;9.76;100.00;98639.16;6276045;22;20254;-80
2022/09/28 05:42:21;;;;;;;55.10;8.35;;;;;;;9.74;100.00;98640.88;6302024;22;20014;-79
2022/09/28 05:44:47;;;;;;;18.30;7.72;;;;;;;9.79;100.00;98651.28;6302859;22;20011;-79
2022/09/28 05:47:12;;;;;;;77.80;8.65;;;;;;;9.81;100.00;98646.06;6276453;22;20011;-79
2022/09/28 05:49:38;;;;;;;9.38;6.95;;;;;;;9.88;100.00;98645.75;6276652;22;20019;-79
2022/09/28 05:52:03;;;;;;;29.75;7.72;;;;;;;9.93;100.00;98653.44;6275096;22;20094;-78
2022/09/28 05:54:31;;;;;;;13.85;6.63;;;;;;;9.96;100.00;98652.50;6276554;22;20007;-79
2022/09/28 05:56:56;;;;;;;27.90;7.15;;;;;;;9.89;100.00;98652.81;6276977;22;20076;-79
2022/09/28 05:59:22;;;;;;;17.23;8.20;;;;;;;9.86;100.00;98642.69;6304217;22;20011;-80
2022/09/28 06:01:48;;;;;;;31.73;7.72;;;;;;;10.00;100.00;98650.31;6250527;22;20311;-80
2022/09/28 06:04:14;;;;;;;29.88;7.80;;;;;;;9.89;100.00;98635.44;6274841;22;20081;-79
2022/09/28 06:06:42;;;;;;;21.65;8.18;;;;;;;9.92;100.00;98631.72;6277009;22;20602;-79
2022/09/28 06:09:08;;;;;;;11.48;7.65;;;;;;;9.90;100.00;98626.66;6304312;22;20453;-78
2022/09/28 06:11:36;;;;;;;9.57;7.43;;;;;;;10.03;100.00;98643.84;6314629;22;20098;-78
2022/09/28 06:14:12;;;;;;;9.68;6.90;;;;;;;10.17;100.00;98640.44;6277960;22;20010;-78
2022/09/28 06:16:40;;;;;;;11.25;6.95;;;;;;;10.09;100.00;98633.69;6279068;22;20106;-79
2022/09/28 06:19:07;;;;;;;11.00;7.70;;;;;;;10.13;100.00;98645.34;6252511;22;20046;-79
2022/09/28 06:21:51;;;;;;;10.32;7.90;;;;;;;10.16;100.00;98629.81;6306208;22;20026;-79
2022/09/28 06:24:16;;;;;;;11.20;8.02;;;;;;;10.31;100.00;98638.25;6306418;22;20011;-79
2022/09/28 06:26:42;;;;;;;8.00;6.50;;;;;;;10.32;100.00;98628.66;6253634;22;20011;-79
2022/09/28 06:29:07;;;;;;;10.57;7.65;;;;;;;10.48;100.00;98636.59;6278693;22;20433;-79
2022/09/28 06:31:33;;;;;;;9.20;7.82;;;;;;;10.65;100.00;98634.97;6253235;22;20007;-79
2022/09/28 06:34:00;;;;;;;9.68;7.57;;;;;;;10.67;100.00;98624.19;6252798;22;20053;-79
2022/09/28 06:36:32;;;;;;;9.43;7.40;;;;;;;10.68;100.00;98628.47;6253851;22;20023;-79
2022/09/28 06:38:58;;;;;;;9.82;7.03;;;;;;;10.77;100.00;98626.41;6254143;22;20361;-79
2022/09/28 06:41:24;;;;;;;7.53;6.75;;;;;;;10.90;100.00;98622.66;6277951;22;20086;-79
2022/09/28 06:43:51;;;;;;;8.40;6.97;;;;;;;11.12;100.00;98623.09;6279206;22;20011;-79
2022/09/28 06:46:37;;;;;;;8.05;5.95;;;;;;;11.32;100.00;98612.13;6282894;22;20026;-80
2022/09/28 06:49:37;;;;;;;8.43;6.25;;;;;;;11.63;100.00;98614.47;6277992;22;20015;-80
2022/09/28 06:52:10;;;;;;;7.72;6.07;;;;;;;11.94;100.00;98619.56;6315238;22;20015;-80
2022/09/28 06:55:10;;;;;;;8.68;5.70;;;;;;;12.15;100.00;98619.16;6276098;22;20019;-78
2022/09/28 06:57:43;;;;;;;7.00;5.47;;;;;;;12.47;100.00;98616.59;6278617;22;20035;-79
2022/09/28 07:00:09;;;;;;;5.85;4.38;;;;;;;12.43;100.00;98622.34;6278184;22;20011;-79
2022/09/28 07:02:35;;;;;;;7.68;4.15;;;;;;;12.47;100.00;98622.16;6276503;22;20014;-79
2022/09/28 07:05:28;;;;;;;6.10;4.05;;;;;;;12.72;100.00;98618.72;6256646;22;20023;-80
2022/09/28 07:08:14;;;;;;;5.47;3.70;;;;;;;12.78;100.00;98630.66;6255380;22;20098;-79
2022/09/28 07:11:05;;;;;;;5.10;3.25;;;;;;;12.69;100.00;98627.25;6255688;22;20068;-79
2022/09/28 07:14:03;;;;;;;7.05;4.15;;;;;;;13.01;100.00;98624.16;6217870;22;20333;-80
2022/09/28 07:16:30;;;;;;;4.30;3.22;;;;;;;13.33;100.00;98624.28;6276456;22;20012;-80
2022/09/28 07:18:55;;;;;;;5.15;3.20;;;;;;;13.45;100.00;98625.94;6305136;22;20019;-79
2022/09/28 07:21:23;;;;;;;3.90;3.10;;;;;;;13.29;100.00;98629.31;6306001;22;20013;-79
2022/09/28 07:23:48;;;;;;;4.85;3.10;;;;;;;13.27;100.00;98629.00;6278348;22;20007;-79
2022/09/28 07:26:14;;;;;;;3.90;3.20;;;;;;;13.37;100.00;98630.41;6305838;22;20059;-79
2022/09/28 07:28:54;;;;;;;4.25;2.83;;;;;;;13.52;100.00;98640.19;6278565;22;20014;-79
2022/09/28 07:31:39;;;;;;;4.88;3.00;;;;;;;13.45;100.00;98628.72;6305134;22;20026;-80
2022/09/28 07:34:17;;;;;;;3.25;2.40;;;;;;;13.48;100.00;98630.53;6255771;22;20018;-80
2022/09/28 07:37:00;;;;;;;3.20;2.60;;;;;;;13.69;100.00;98634.81;6278744;22;20030;-80
2022/09/28 07:39:26;;;;;;;3.80;2.38;;;;;;;13.70;100.00;98627.22;6278552;22;20710;-80
2022/09/28 07:41:52;;;;;;;3.10;2.35;;;;;;;13.75;100.00;98620.94;6278934;22;20003;-80
2022/09/28 07:44:18;;;;;;;4.68;2.70;;;;;;;13.68;100.00;98627.69;6305788;22;20429;-80
2022/09/28 07:46:46;;;;;;;4.20;2.30;;;;;;;13.76;100.00;98633.59;6276963;22;20030;-80
2022/09/28 07:49:37;;;;;;;3.45;2.40;;;;;;;13.81;100.00;98638.44;6277543;22;20061;-80
2022/09/28 07:52:27;;;;;;;3.50;2.60;;;;;;;13.84;100.00;98632.66;6263555;22;20015;-80
2022/09/28 07:55:12;;;;;;;6.05;2.60;;;;;;;13.82;100.00;98648.34;6305685;22;20007;-79
2022/09/28 07:58:13;;;;;;;3.70;2.50;;;;;;;13.84;100.00;98657.75;6181449;23;20017;-80
2022/09/28 08:01:03;;;;;;;2.55;2.08;;;;;;;13.64;100.00;98638.28;6247733;22;20007;-80
2022/09/28 08:03:28;;;;;;;3.38;2.30;;;;;;;13.54;100.00;98636.94;6277310;22;20015;-79
2022/09/28 08:06:03;;;;;;;3.90;2.40;;;;;;;13.55;100.00;98619.72;6278715;22;20100;-79
2022/09/28 08:08:30;;;;;;;3.53;2.40;;;;;;;13.68;100.00;98638.84;6278287;22;20018;-78
2022/09/28 08:10:57;;;;;;;3.60;2.20;;;;;;;13.57;100.00;98638.72;6278335;22;20031;-78
2022/09/28 08:13:59;;;;;;;8.18;2.47;;;;;;;13.93;100.00;98621.34;6268274;22;20019;-77
2022/09/28 08:16:54;;;;;;;3.88;2.10;;;;;;;14.38;100.00;98627.28;6280198;22;20023;-78
2022/09/28 08:22:23;;;;;;;3.85;2.25;;;;;;;14.19;100.00;98615.72;6278789;22;20015;-78
2022/09/28 08:24:54;;;;;;;4.60;1.85;;;;;;;14.15;100.00;98631.16;6278363;22;20341;-77
2022/09/28 08:27:19;;;;;;;5.47;2.05;;;;;;;14.48;100.00;98623.03;6278610;22;20326;-78
2022/09/28 08:29:45;;;;;;;3.28;1.70;;;;;;;14.86;100.00;98616.91;6278256;22;20025;-78
2022/09/28 08:32:34;;;;;;;6.40;1.83;;;;;;;14.59;100.00;98625.91;6304453;22;20022;-78
2022/09/28 08:35:18;;;;;;;2.33;1.83;;;;;;;14.57;100.00;98606.09;6303923;22;20030;-78
2022/09/28 08:38:04;;;;;;;4.00;2.65;;;;;;;14.82;100.00;98610.81;6276996;22;20004;-78
2022/09/28 08:40:57;;;;;;;2.78;1.52;;;;;;;15.15;100.00;98601.81;6305621;22;20096;-77
2022/09/28 08:43:55;;;;;;;5.13;1.77;;;;;;;15.41;100.00;98598.81;6277860;22;20034;-78
2022/09/28 08:46:58;;;;;;;2.92;1.58;;;;;;;15.82;100.00;98605.53;6278397;22;20100;-78
2022/09/28 08:49:53;;;;;;;2.47;1.20;;;;;;;16.20;100.00;98612.41;6258447;22;20015;-78
2022/09/28 08:52:38;;;;;;;2.28;1.20;;;;;;;16.12;99.99;98611.41;6278718;22;20015;-78
2022/09/28 08:55:36;;;;;;;1.77;1.30;;;;;;;15.55;100.00;98599.91;6277421;22;20332;-78
2022/09/28 08:58:16;;;;;;;1.67;1.20;;;;;;;15.64;100.00;98594.84;6278947;22;20089;-78
2022/09/28 09:00:47;;;;;;;2.65;1.20;;;;;;;16.02;100.00;98589.78;6278410;22;20007;-77
2022/09/28 09:03:17;;;;;;;3.17;1.50;;;;;;;15.92;100.00;98594.09;6252308;22;20061;-77
2022/09/28 09:06:05;;;;;;;3.08;1.58;;;;;;;15.58;100.00;98591.28;6254782;22;20003;-77
2022/09/28 09:09:10;;;;;;;2.85;1.50;;;;;;;15.44;100.00;98599.88;6255994;22;20038;-77
2022/09/28 09:11:44;;;;;;;3.63;1.60;;;;;;;15.25;100.00;98596.75;6278560;22;20047;-77
2022/09/28 09:14:33;;;;;;;3.22;1.65;;;;;;;14.99;100.00;98601.75;6277926;22;20468;-77
2022/09/28 09:17:26;;;;;;;3.55;1.52;;;;;;;14.94;100.00;98595.63;6252739;22;20023;-78
2022/09/28 09:20:19;;;;;;;1.92;1.23;;;;;;;15.04;100.00;98593.41;6249249;22;20017;-79
2022/09/28 09:23:00;;;;;;;1.85;1.27;;;;;;;15.20;100.00;98586.34;6279274;22;20011;-79
2022/09/28 09:25:33;;;;;;;1.80;1.30;;;;;;;15.20;100.00;98584.31;6253322;22;20099;-92
2022/09/28 09:28:34;;;;;;;1.45;1.17;;;;;;;15.29;99.11;98577.72;6255870;22;20014;-95
2022/09/28 09:31:25;;;;;;;6.50;1.33;;;;;;;15.58;100.00;98580.09;6280100;22;20015;-93
2022/09/28 09:34:08;;;;;;;3.47;1.50;;;;;;;15.85;96.53;98559.78;6254653;22;20471;-95
2022/09/28 09:37:16;;;;;;;1.13;1.02;;;;;;;15.79;97.72;98572.25;6259363;22;20026;-93
2022/09/28 09:39:42;;;;;;;1.75;1.27;;;;;;;15.86;96.86;98566.91;6316188;22;20023;-94
2022/09/28 09:42:51;;;;;;;1.75;1.20;;;;;;;15.57;95.21;98575.03;6305649;22;20019;-93
2022/09/28 09:46:02;;;;;;;2.20;1.20;;;;;;;15.41;97.69;98576.47;6247871;22;20023;-94
2022/09/28 09:49:04;;;;;;;1.67;1.33;;;;;;;15.65;97.53;98574.00;6220534;22;20090;-93
2022/09/28 09:51:54;;;;;;;2.33;1.25;;;;;;;15.71;95.44;98569.19;6277470;22;20056;-91
2022/09/28 09:54:34;;;;;;;1.25;1.13;;;;;;;15.81;98.23;98564.84;6251799;22;20022;-91
2022/09/28 09:57:15;;;;;;;2.58;1.20;;;;;;;16.11;94.78;98564.34;6253409;22;20019;-93
2022/09/28 10:00:00;;;;;;;3.65;1.30;;;;;;;16.19;94.75;98560.53;6256038;22;20057;-92
2022/09/28 10:02:47;;;;;;;2.03;0.98;;;;;;;16.07;92.59;98561.03;6286860;22;20049;-94
2022/09/28 10:05:31;;;;;;;2.85;1.65;;;;;;;15.95;93.83;98545.53;6306620;22;20007;-94
2022/09/28 10:08:12;;;;;;;1.92;1.20;;;;;;;15.91;94.48;98559.00;6255037;22;20015;-93
2022/09/28 10:10:48;;;;;;;5.05;1.42;;;;;;;16.03;95.53;98543.75;6279556;22;20098;-94
2022/09/28 10:13:15;;;;;;;2.72;1.10;;;;;;;16.20;95.73;98538.91;6252818;22;20012;-93
2022/09/28 10:15:46;;;;;;;2.55;1.13;;;;;;;16.23;91.38;98543.47;6281125;22;20026;-92
2022/09/28 10:18:18;;;;;;;1.48;1.17;;;;;;;16.09;92.64;98548.09;6254096;22;20011;-93
2022/09/28 10:21:03;;;;;;;3.10;1.55;;;;;;;16.16;94.23;98532.81;6280359;22;20061;-94
2022/09/28 10:23:58;;;;;;;1.42;0.93;;;;;;;16.08;93.18;98551.38;6258937;22;20441;-92
2022/09/28 10:26:33;;;;;;;2.40;1.23;;;;;;;16.00;92.52;98530.81;6277824;22;20103;-94
2022/09/28 10:29:11;;;;;;;2.08;1.20;;;;;;;15.82;91.81;98527.25;6253314;22;20094;-91
2022/09/28 10:31:47;;;;;;;1.52;1.10;;;;;;;16.10;92.05;98526.44;6252107;22;20068;-91
2022/09/28 10:34:26;;;;;;;3.92;1.10;;;;;;;16.08;91.84;98529.00;6252283;22;20338;-90
2022/09/28 10:36:58;;;;;;;3.47;1.40;;;;;;;16.24;90.21;98528.22;6274776;22;20016;-92
2022/09/28 10:39:39;;;;;;;2.55;1.10;;;;;;;16.43;87.78;98531.97;6275305;22;20068;-92
2022/09/28 10:42:11;;;;;;;2.20;1.10;;;;;;;16.70;89.51;98531.16;6251662;22;20015;-91
2022/09/28 10:44:50;;;;;;;2.03;1.33;;;;;;;17.06;87.79;98512.41;6278238;22;20026;-93
2022/09/28 10:47:33;;;;;;;1.80;1.10;;;;;;;17.36;86.61;98523.69;6254648;22;20148;-91
2022/09/28 10:49:58;;;;;;;2.78;1.20;;;;;;;17.59;85.59;98527.88;6277992;22;20349;-91
2022/09/28 10:52:40;;;;;;;2.40;1.10;;;;;;;17.82;83.32;98519.28;6253121;22;20007;-91
2022/09/28 10:55:21;;;;;;;1.80;1.20;;;;;;;17.92;82.98;98512.81;6278330;22;20011;-91
2022/09/28 10:57:47;;;;;;;1.75;1.00;;;;;;;17.97;82.82;98525.28;6278376;22;20108;-90
2022/09/28 11:00:48;;;;;;;1.83;1.23;;;;;;;17.94;81.02;98515.09;6279602;22;20023;-91
2022/09/28 11:03:26;;;;;;;3.55;1.60;;;;;;;17.94;82.67;98503.88;6102909;23;20131;-92
2022/09/28 11:06:06;;;;;;;1.13;0.90;;;;;;;18.09;82.31;98515.47;6261201;22;20019;-92
2022/09/28 11:08:37;;;;;;;2.05;1.13;;;;;;;17.92;81.29;98503.63;6279959;22;20008;-93
2022/09/28 11:11:08;;;;;;;2.85;1.00;;;;;;;17.89;81.89;98499.06;6254329;22;20060;-91
2022/09/28 11:13:47;;;;;;;2.35;1.00;;;;;;;17.82;82.01;98480.03;6307490;22;20383;-91
2022/09/28 11:16:28;;;;;;;2.78;0.95;;;;;;;18.01;81.53;98503.28;6279533;22;20070;-93
2022/09/28 11:18:56;;;;;;;3.33;0.93;;;;;;;17.88;81.52;98484.28;6279402;22;20015;-92
2022/09/28 11:21:25;;;;;;;2.38;1.15;;;;;;;18.10;79.98;98489.69;6279489;22;20011;-92
2022/09/28 11:24:00;;;;;;;1.42;0.95;;;;;;;18.07;77.34;98495.59;6255873;22;20010;-91
2022/09/28 11:26:34;;;;;;;0.98;0.85;;;;;;;17.75;81.36;98486.97;6279354;22;20102;-92
2022/09/28 11:29:00;;;;;;;1.70;0.80;;;;;;;17.80;80.72;98465.75;6306947;22;20015;-90
2022/09/28 11:31:38;;;;;;;2.33;1.00;;;;;;;17.97;81.50;98477.56;6256234;22;20003;-89
2022/09/28 11:34:19;;;;;;;2.40;0.75;;;;;;;17.97;80.08;98463.56;6255946;22;20007;-89
2022/09/28 11:37:35;;;;;;;0.85;0.80;;;;;;;17.94;81.61;98459.00;6284031;22;20011;-90
2022/09/28 11:40:13;;;;;;;2.10;1.02;;;;;;;18.11;84.21;98456.78;6196958;22;20058;-90
2022/09/28 11:42:56;;;;;;;0.82;0.73;;;;;;;18.29;80.84;98456.06;6278590;22;20012;-89
2022/09/28 11:45:41;;;;;;;;;;;;;;;18.08;82.01;98469.81;6306378;22;20016;-89
2022/09/28 11:48:14;;;;;;;2.30;1.10;;;;;;;17.81;83.82;98464.47;6307248;22;19994;-91
2022/09/28 11:50:45;;;;;;;1.25;0.98;;;;;;;17.95;84.59;98471.75;6253178;22;20011;-89
2022/09/28 11:53:36;;;;;;;1.27;0.93;;;;;;;17.88;84.28;98481.47;6279524;22;20577;-92
2022/09/28 11:56:20;;;;;;;3.35;1.00;;;;;;;17.63;85.70;98469.47;6252087;22;20061;-90
2022/09/28 11:58:52;;;;;;;2.75;1.20;;;;;;;17.48;88.21;98469.06;6278469;22;20083;-89
2022/09/28 12:01:43;;;;;;;1.92;1.15;;;;;;;17.84;86.24;98472.59;6279173;22;20083;-89